sensor_id;sensor_type;location;lat;lon;timestamp;P1;durP1;ratioP1;P2;durP2;ratioP2
64235;SDS011;50564;47.402;9.740;2022-09-27T00:01:34;2.15;;;1.70;;
64235;SDS011;50564;47.402;9.740;2022-09-27T00:06:34;3.67;;;1.70;;
64235;SDS011;50564;47.402;9.740;2022-09-27T00:11:36;3.65;;;1.77;;
64235;SDS011;50564;47.402;9.740;2022-09-27T00:16:39;2.53;;;1.80;;
64235;SDS011;50564;47.402;9.740;2022-09-27T00:21:41;4.93;;;1.70;;
64235;SDS011;50564;47.402;9.740;2022-09-27T00:26:42;4.32;;;2.30;;
64235;SDS011;50564;47.402;9.740;2022-09-27T00:31:44;2.90;;;1.95;;
64235;SDS011;50564;47.402;9.740;2022-09-27T00:36:45;1.95;;;1.80;;
64235;SDS011;50564;47.402;9.740;2022-09-27T00:41:47;4.43;;;1.80;;
64235;SDS011;50564;47.402;9.740;2022-09-27T00:46:48;3.67;;;2.05;;
64235;SDS011;50564;47.402;9.740;2022-09-27T00:51:52;2.25;;;1.65;;
64235;SDS011;50564;47.402;9.740;2022-09-27T00:56:55;2.30;;;1.65;;
64235;SDS011;50564;47.402;9.740;2022-09-27T01:01:56;2.70;;;1.55;;
64235;SDS011;50564;47.402;9.740;2022-09-27T01:06:57;3.85;;;1.88;;
64235;SDS011;50564;47.402;9.740;2022-09-27T01:39:01;3.17;;;1.83;;
64235;SDS011;50564;47.402;9.740;2022-09-27T01:44:36;2.33;;;1.27;;
64235;SDS011;50564;47.402;9.740;2022-09-27T01:50:02;4.03;;;2.00;;
64235;SDS011;50564;47.402;9.740;2022-09-27T01:55:08;5.10;;;2.17;;
64235;SDS011;50564;47.402;9.740;2022-09-27T02:00:33;4.63;;;2.40;;
64235;SDS011;50564;47.402;9.740;2022-09-27T02:05:36;3.40;;;2.08;;
64235;SDS011;50564;47.402;9.740;2022-09-27T02:11:15;4.15;;;2.05;;
64235;SDS011;50564;47.402;9.740;2022-09-27T02:16:25;3.90;;;1.88;;
64235;SDS011;50564;47.402;9.740;2022-09-27T02:21:41;3.67;;;2.20;;
64235;SDS011;50564;47.402;9.740;2022-09-27T02:26:54;2.08;;;1.75;;
64235;SDS011;50564;47.402;9.740;2022-09-27T02:32:06;2.90;;;1.90;;
64235;SDS011;50564;47.402;9.740;2022-09-27T02:37:09;3.55;;;2.15;;
64235;SDS011;50564;47.402;9.740;2022-09-27T02:42:10;5.07;;;2.85;;
64235;SDS011;50564;47.402;9.740;2022-09-27T02:58:00;3.88;;;2.40;;
64235;SDS011;50564;47.402;9.740;2022-09-27T03:04:08;5.05;;;2.33;;
64235;SDS011;50564;47.402;9.740;2022-09-27T03:09:12;2.38;;;1.98;;
64235;SDS011;50564;47.402;9.740;2022-09-27T03:14:22;5.63;;;2.05;;
64235;SDS011;50564;47.402;9.740;2022-09-27T03:19:44;3.83;;;2.33;;
64235;SDS011;50564;47.402;9.740;2022-09-27T03:25:03;5.53;;;4.60;;
64235;SDS011;50564;47.402;9.740;2022-09-27T03:30:05;5.18;;;2.88;;
64235;SDS011;50564;47.402;9.740;2022-09-27T03:35:07;4.93;;;3.00;;
64235;SDS011;50564;47.402;9.740;2022-09-27T03:40:08;4.03;;;2.67;;
64235;SDS011;50564;47.402;9.740;2022-09-27T03:45:09;8.63;;;4.43;;
64235;SDS011;50564;47.402;9.740;2022-09-27T03:50:10;4.82;;;2.63;;
64235;SDS011;50564;47.402;9.740;2022-09-27T03:55:11;3.92;;;2.70;;
64235;SDS011;50564;47.402;9.740;2022-09-27T04:00:13;3.83;;;2.25;;
64235;SDS011;50564;47.402;9.740;2022-09-27T04:05:14;4.85;;;3.30;;
64235;SDS011;50564;47.402;9.740;2022-09-27T04:10:15;3.97;;;3.13;;
64235;SDS011;50564;47.402;9.740;2022-09-27T04:15:16;6.00;;;3.67;;
64235;SDS011;50564;47.402;9.740;2022-09-27T04:20:23;3.05;;;1.60;;
64235;SDS011;50564;47.402;9.740;2022-09-27T04:25:24;2.85;;;1.50;;
64235;SDS011;50564;47.402;9.740;2022-09-27T04:30:28;2.55;;;1.00;;
64235;SDS011;50564;47.402;9.740;2022-09-27T04:35:28;1.55;;;0.90;;
64235;SDS011;50564;47.402;9.740;2022-09-27T04:40:48;0.98;;;0.60;;
64235;SDS011;50564;47.402;9.740;2022-09-27T04:45:50;0.40;;;0.40;;
64235;SDS011;50564;47.402;9.740;2022-09-27T04:50:54;1.15;;;0.90;;
64235;SDS011;50564;47.402;9.740;2022-09-27T04:55:58;2.28;;;1.40;;
64235;SDS011;50564;47.402;9.740;2022-09-27T05:01:02;0.65;;;0.65;;
64235;SDS011;50564;47.402;9.740;2022-09-27T05:06:32;0.47;;;0.47;;
64235;SDS011;50564;47.402;9.740;2022-09-27T05:11:39;0.50;;;0.40;;
64235;SDS011;50564;47.402;9.740;2022-09-27T05:16:49;2.20;;;0.57;;
64235;SDS011;50564;47.402;9.740;2022-09-27T05:22:08;1.00;;;0.70;;
64235;SDS011;50564;47.402;9.740;2022-09-27T05:27:10;1.00;;;0.60;;
64235;SDS011;50564;47.402;9.740;2022-09-27T05:32:15;1.95;;;0.80;;
64235;SDS011;50564;47.402;9.740;2022-09-27T05:37:18;1.05;;;0.80;;
64235;SDS011;50564;47.402;9.740;2022-09-27T05:42:20;2.08;;;0.90;;
64235;SDS011;50564;47.402;9.740;2022-09-27T05:47:21;3.92;;;1.20;;
64235;SDS011;50564;47.402;9.740;2022-09-27T05:52:22;3.70;;;1.45;;
64235;SDS011;50564;47.402;9.740;2022-09-27T05:57:30;7.55;;;4.22;;
64235;SDS011;50564;47.402;9.740;2022-09-27T06:02:36;3.47;;;1.60;;
64235;SDS011;50564;47.402;9.740;2022-09-27T06:08:10;2.85;;;1.35;;
64235;SDS011;50564;47.402;9.740;2022-09-27T06:13:18;2.80;;;1.48;;
64235;SDS011;50564;47.402;9.740;2022-09-27T06:18:19;1.83;;;1.08;;
64235;SDS011;50564;47.402;9.740;2022-09-27T06:23:22;2.67;;;1.33;;
64235;SDS011;50564;47.402;9.740;2022-09-27T06:28:24;2.33;;;1.75;;
64235;SDS011;50564;47.402;9.740;2022-09-27T06:33:29;4.03;;;2.40;;
64235;SDS011;50564;47.402;9.740;2022-09-27T06:38:32;6.07;;;2.65;;
64235;SDS011;50564;47.402;9.740;2022-09-27T06:43:41;9.00;;;5.15;;
64235;SDS011;50564;47.402;9.740;2022-09-27T06:49:07;10.55;;;4.80;;
64235;SDS011;50564;47.402;9.740;2022-09-27T06:54:09;2.97;;;1.35;;
64235;SDS011;50564;47.402;9.740;2022-09-27T06:59:10;3.78;;;1.80;;
64235;SDS011;50564;47.402;9.740;2022-09-27T07:04:48;4.30;;;1.60;;
64235;SDS011;50564;47.402;9.740;2022-09-27T07:09:59;2.17;;;1.70;;
64235;SDS011;50564;47.402;9.740;2022-09-27T07:15:01;4.15;;;1.10;;
64235;SDS011;50564;47.402;9.740;2022-09-27T07:20:03;3.80;;;1.13;;
64235;SDS011;50564;47.402;9.740;2022-09-27T07:25:04;1.77;;;0.93;;
64235;SDS011;50564;47.402;9.740;2022-09-27T07:30:05;2.03;;;1.25;;
64235;SDS011;50564;47.402;9.740;2022-09-27T07:35:08;2.20;;;1.15;;
64235;SDS011;50564;47.402;9.740;2022-09-27T07:40:09;3.53;;;1.65;;
64235;SDS011;50564;47.402;9.740;2022-09-27T07:45:10;4.90;;;2.15;;
64235;SDS011;50564;47.402;9.740;2022-09-27T07:50:35;0.65;;;0.65;;
64235;SDS011;50564;47.402;9.740;2022-09-27T07:55:53;1.58;;;0.80;;
64235;SDS011;50564;47.402;9.740;2022-09-27T08:00:58;1.25;;;0.80;;
64235;SDS011;50564;47.402;9.740;2022-09-27T08:06:00;2.65;;;1.30;;
64235;SDS011;50564;47.402;9.740;2022-09-27T08:11:13;1.58;;;1.08;;
64235;SDS011;50564;47.402;9.740;2022-09-27T08:16:15;1.20;;;0.82;;
64235;SDS011;50564;47.402;9.740;2022-09-27T08:21:34;1.63;;;0.95;;
64235;SDS011;50564;47.402;9.740;2022-09-27T08:26:55;3.03;;;1.13;;
64235;SDS011;50564;47.402;9.740;2022-09-27T08:37:14;0.93;;;0.70;;
64235;SDS011;50564;47.402;9.740;2022-09-27T08:58:00;1.08;;;0.52;;
64235;SDS011;50564;47.402;9.740;2022-09-27T09:03:03;3.75;;;0.55;;
64235;SDS011;50564;47.402;9.740;2022-09-27T09:34:59;1.90;;;0.95;;
64235;SDS011;50564;47.402;9.740;2022-09-27T09:45:46;0.70;;;0.70;;
64235;SDS011;50564;47.402;9.740;2022-09-27T09:51:01;1.67;;;0.60;;
64235;SDS011;50564;47.402;9.740;2022-09-27T09:56:10;1.08;;;0.63;;
64235;SDS011;50564;47.402;9.740;2022-09-27T10:01:19;2.05;;;0.63;;
64235;SDS011;50564;47.402;9.740;2022-09-27T10:06:27;2.08;;;0.70;;
64235;SDS011;50564;47.402;9.740;2022-09-27T10:11:35;0.88;;;0.60;;
64235;SDS011;50564;47.402;9.740;2022-09-27T10:16:55;0.75;;;0.70;;
64235;SDS011;50564;47.402;9.740;2022-09-27T10:22:02;2.47;;;1.00;;
64235;SDS011;50564;47.402;9.740;2022-09-27T10:27:10;5.57;;;2.67;;
64235;SDS011;50564;47.402;9.740;2022-09-27T10:32:32;2.53;;;0.85;;
64235;SDS011;50564;47.402;9.740;2022-09-27T10:43:28;4.28;;;1.23;;
64235;SDS011;50564;47.402;9.740;2022-09-27T10:48:43;2.72;;;0.75;;
64235;SDS011;50564;47.402;9.740;2022-09-27T10:53:44;2.55;;;0.70;;
64235;SDS011;50564;47.402;9.740;2022-09-27T10:58:52;2.53;;;0.95;;
64235;SDS011;50564;47.402;9.740;2022-09-27T11:03:56;2.08;;;1.10;;
64235;SDS011;50564;47.402;9.740;2022-09-27T11:09:08;8.10;;;3.70;;
64235;SDS011;50564;47.402;9.740;2022-09-27T11:14:22;15.80;;;4.25;;
64235;SDS011;50564;47.402;9.740;2022-09-27T11:19:35;15.02;;;6.00;;
64235;SDS011;50564;47.402;9.740;2022-09-27T11:40:51;2.85;;;1.60;;
64235;SDS011;50564;47.402;9.740;2022-09-27T11:51:28;1.52;;;0.73;;
64235;SDS011;50564;47.402;9.740;2022-09-27T12:01:53;1.02;;;0.60;;
64235;SDS011;50564;47.402;9.740;2022-09-27T12:12:19;5.07;;;1.70;;
64235;SDS011;50564;47.402;9.740;2022-09-27T12:17:28;2.75;;;1.58;;
64235;SDS011;50564;47.402;9.740;2022-09-27T12:22:33;5.60;;;3.15;;
64235;SDS011;50564;47.402;9.740;2022-09-27T12:27:49;4.03;;;2.08;;
64235;SDS011;50564;47.402;9.740;2022-09-27T12:32:56;2.58;;;1.30;;
64235;SDS011;50564;47.402;9.740;2022-09-27T12:38:22;2.20;;;1.00;;
64235;SDS011;50564;47.402;9.740;2022-09-27T12:44:04;3.78;;;1.30;;
64235;SDS011;50564;47.402;9.740;2022-09-27T13:00:11;10.52;;;5.80;;
64235;SDS011;50564;47.402;9.740;2022-09-27T13:16:40;14.27;;;3.88;;
64235;SDS011;50564;47.402;9.740;2022-09-27T13:32:28;0.82;;;0.50;;
64235;SDS011;50564;47.402;9.740;2022-09-27T13:37:56;4.15;;;0.80;;
64235;SDS011;50564;47.402;9.740;2022-09-27T13:48:21;1.52;;;0.77;;
64235;SDS011;50564;47.402;9.740;2022-09-27T13:53:41;2.75;;;0.60;;
64235;SDS011;50564;47.402;9.740;2022-09-27T13:59:00;0.50;;;0.45;;
64235;SDS011;50564;47.402;9.740;2022-09-27T14:04:26;2.13;;;0.50;;
64235;SDS011;50564;47.402;9.740;2022-09-27T14:09:30;2.65;;;0.70;;
64235;SDS011;50564;47.402;9.740;2022-09-27T14:14:41;2.40;;;1.25;;
64235;SDS011;50564;47.402;9.740;2022-09-27T14:19:43;1.77;;;0.63;;
64235;SDS011;50564;47.402;9.740;2022-09-27T14:24:47;0.95;;;0.40;;
64235;SDS011;50564;47.402;9.740;2022-09-27T14:29:58;1.17;;;0.57;;
64235;SDS011;50564;47.402;9.740;2022-09-27T14:40:31;2.15;;;1.05;;
64235;SDS011;50564;47.402;9.740;2022-09-27T14:50:39;1.08;;;0.60;;
64235;SDS011;50564;47.402;9.740;2022-09-27T14:55:42;2.88;;;0.70;;
64235;SDS011;50564;47.402;9.740;2022-09-27T15:00:45;1.20;;;0.52;;
64235;SDS011;50564;47.402;9.740;2022-09-27T15:05:46;2.13;;;0.90;;
64235;SDS011;50564;47.402;9.740;2022-09-27T15:10:46;2.15;;;0.60;;
64235;SDS011;50564;47.402;9.740;2022-09-27T15:15:48;0.70;;;0.32;;
64235;SDS011;50564;47.402;9.740;2022-09-27T15:20:53;0.30;;;0.30;;
64235;SDS011;50564;47.402;9.740;2022-09-27T15:26:05;0.40;;;0.38;;
64235;SDS011;50564;47.402;9.740;2022-09-27T15:31:12;1.23;;;0.50;;
64235;SDS011;50564;47.402;9.740;2022-09-27T15:36:13;1.75;;;1.30;;
64235;SDS011;50564;47.402;9.740;2022-09-27T15:41:15;0.50;;;0.40;;
64235;SDS011;50564;47.402;9.740;2022-09-27T15:51:37;1.80;;;0.50;;
64235;SDS011;50564;47.402;9.740;2022-09-27T15:56:46;1.20;;;1.10;;
64235;SDS011;50564;47.402;9.740;2022-09-27T16:01:48;2.03;;;1.20;;
64235;SDS011;50564;47.402;9.740;2022-09-27T16:06:53;1.33;;;0.90;;
64235;SDS011;50564;47.402;9.740;2022-09-27T16:11:54;1.92;;;1.38;;
64235;SDS011;50564;47.402;9.740;2022-09-27T16:16:55;2.42;;;1.10;;
64235;SDS011;50564;47.402;9.740;2022-09-27T16:21:56;2.25;;;1.50;;
64235;SDS011;50564;47.402;9.740;2022-09-27T16:26:57;2.47;;;1.30;;
64235;SDS011;50564;47.402;9.740;2022-09-27T16:31:58;2.67;;;0.60;;
64235;SDS011;50564;47.402;9.740;2022-09-27T16:36:58;2.17;;;1.38;;
64235;SDS011;50564;47.402;9.740;2022-09-27T16:41:59;4.07;;;2.38;;
64235;SDS011;50564;47.402;9.740;2022-09-27T16:47:04;2.83;;;1.52;;
64235;SDS011;50564;47.402;9.740;2022-09-27T16:52:06;2.80;;;1.40;;
64235;SDS011;50564;47.402;9.740;2022-09-27T16:57:09;5.82;;;2.00;;
64235;SDS011;50564;47.402;9.740;2022-09-27T17:02:09;2.42;;;1.27;;
64235;SDS011;50564;47.402;9.740;2022-09-27T17:07:10;2.67;;;1.52;;
64235;SDS011;50564;47.402;9.740;2022-09-27T17:12:11;4.38;;;1.73;;
64235;SDS011;50564;47.402;9.740;2022-09-27T17:17:12;3.60;;;1.50;;
64235;SDS011;50564;47.402;9.740;2022-09-27T17:22:13;3.80;;;2.22;;
64235;SDS011;50564;47.402;9.740;2022-09-27T17:27:14;3.25;;;1.90;;
64235;SDS011;50564;47.402;9.740;2022-09-27T17:32:15;5.47;;;2.97;;
64235;SDS011;50564;47.402;9.740;2022-09-27T17:37:15;4.20;;;2.20;;
64235;SDS011;50564;47.402;9.740;2022-09-27T17:42:16;8.38;;;3.30;;
64235;SDS011;50564;47.402;9.740;2022-09-27T17:47:18;4.55;;;2.85;;
64235;SDS011;50564;47.402;9.740;2022-09-27T17:52:38;7.55;;;3.90;;
64235;SDS011;50564;47.402;9.740;2022-09-27T17:57:39;7.22;;;4.20;;
64235;SDS011;50564;47.402;9.740;2022-09-27T18:02:40;5.95;;;3.85;;
64235;SDS011;50564;47.402;9.740;2022-09-27T18:07:41;6.55;;;4.53;;
64235;SDS011;50564;47.402;9.740;2022-09-27T18:12:41;9.65;;;4.53;;
64235;SDS011;50564;47.402;9.740;2022-09-27T18:17:43;6.32;;;3.25;;
64235;SDS011;50564;47.402;9.740;2022-09-27T18:22:44;5.45;;;3.28;;
64235;SDS011;50564;47.402;9.740;2022-09-27T18:27:47;5.90;;;3.30;;
64235;SDS011;50564;47.402;9.740;2022-09-27T18:32:49;5.38;;;2.40;;
64235;SDS011;50564;47.402;9.740;2022-09-27T18:37:50;5.65;;;2.65;;
64235;SDS011;50564;47.402;9.740;2022-09-27T18:42:51;3.42;;;2.10;;
64235;SDS011;50564;47.402;9.740;2022-09-27T18:47:52;4.53;;;2.15;;
64235;SDS011;50564;47.402;9.740;2022-09-27T18:52:52;3.90;;;2.17;;
64235;SDS011;50564;47.402;9.740;2022-09-27T19:03:01;4.60;;;2.50;;
64235;SDS011;50564;47.402;9.740;2022-09-27T19:08:02;3.47;;;1.80;;
64235;SDS011;50564;47.402;9.740;2022-09-27T19:13:02;5.78;;;3.15;;
64235;SDS011;50564;47.402;9.740;2022-09-27T19:18:03;6.72;;;2.70;;
64235;SDS011;50564;47.402;9.740;2022-09-27T19:23:04;6.57;;;3.00;;
64235;SDS011;50564;47.402;9.740;2022-09-27T19:28:05;3.33;;;2.33;;
64235;SDS011;50564;47.402;9.740;2022-09-27T19:33:06;2.47;;;1.90;;
64235;SDS011;50564;47.402;9.740;2022-09-27T19:38:06;4.72;;;2.08;;
64235;SDS011;50564;47.402;9.740;2022-09-27T19:43:07;3.85;;;2.40;;
64235;SDS011;50564;47.402;9.740;2022-09-27T19:48:08;5.65;;;2.50;;
64235;SDS011;50564;47.402;9.740;2022-09-27T19:53:08;3.00;;;1.63;;
64235;SDS011;50564;47.402;9.740;2022-09-27T19:58:09;1.83;;;1.30;;
64235;SDS011;50564;47.402;9.740;2022-09-27T20:03:09;2.05;;;1.13;;
64235;SDS011;50564;47.402;9.740;2022-09-27T20:08:10;1.55;;;1.00;;
64235;SDS011;50564;47.402;9.740;2022-09-27T20:13:11;1.73;;;1.00;;
64235;SDS011;50564;47.402;9.740;2022-09-27T20:18:11;2.00;;;1.30;;
64235;SDS011;50564;47.402;9.740;2022-09-27T20:23:12;2.13;;;1.10;;
64235;SDS011;50564;47.402;9.740;2022-09-27T20:28:13;1.17;;;0.90;;
64235;SDS011;50564;47.402;9.740;2022-09-27T20:33:13;1.23;;;0.75;;
64235;SDS011;50564;47.402;9.740;2022-09-27T20:38:34;0.73;;;0.60;;
64235;SDS011;50564;47.402;9.740;2022-09-27T20:43:36;2.60;;;0.60;;
64235;SDS011;50564;47.402;9.740;2022-09-27T20:48:37;1.60;;;0.70;;
64235;SDS011;50564;47.402;9.740;2022-09-27T20:53:41;1.05;;;0.60;;
64235;SDS011;50564;47.402;9.740;2022-09-27T20:58:44;2.40;;;1.40;;
64235;SDS011;50564;47.402;9.740;2022-09-27T21:03:46;2.10;;;0.93;;
64235;SDS011;50564;47.402;9.740;2022-09-27T21:08:47;1.85;;;1.15;;
64235;SDS011;50564;47.402;9.740;2022-09-27T21:13:49;2.08;;;1.17;;
64235;SDS011;50564;47.402;9.740;2022-09-27T21:18:51;0.55;;;0.55;;
64235;SDS011;50564;47.402;9.740;2022-09-27T21:23:57;1.60;;;0.50;;
64235;SDS011;50564;47.402;9.740;2022-09-27T21:28:59;1.55;;;0.38;;
64235;SDS011;50564;47.402;9.740;2022-09-27T21:34:01;0.55;;;0.45;;
64235;SDS011;50564;47.402;9.740;2022-09-27T21:39:04;1.55;;;0.70;;
64235;SDS011;50564;47.402;9.740;2022-09-27T21:44:05;2.58;;;1.20;;
64235;SDS011;50564;47.402;9.740;2022-09-27T21:49:06;1.02;;;0.70;;
64235;SDS011;50564;47.402;9.740;2022-09-27T21:54:08;0.75;;;0.50;;
64235;SDS011;50564;47.402;9.740;2022-09-27T21:59:12;0.60;;;0.40;;
64235;SDS011;50564;47.402;9.740;2022-09-27T22:04:14;3.95;;;1.48;;
64235;SDS011;50564;47.402;9.740;2022-09-27T22:09:15;1.90;;;1.30;;
64235;SDS011;50564;47.402;9.740;2022-09-27T22:14:16;1.73;;;1.27;;
64235;SDS011;50564;47.402;9.740;2022-09-27T22:19:18;3.58;;;1.10;;
64235;SDS011;50564;47.402;9.740;2022-09-27T22:24:20;3.30;;;1.17;;
64235;SDS011;50564;47.402;9.740;2022-09-27T22:29:20;1.80;;;1.23;;
64235;SDS011;50564;47.402;9.740;2022-09-27T22:34:21;1.67;;;1.20;;
64235;SDS011;50564;47.402;9.740;2022-09-27T22:39:27;1.58;;;1.00;;
64235;SDS011;50564;47.402;9.740;2022-09-27T22:44:28;1.15;;;0.85;;
64235;SDS011;50564;47.402;9.740;2022-09-27T22:49:29;2.80;;;0.80;;
64235;SDS011;50564;47.402;9.740;2022-09-27T22:54:30;0.60;;;0.60;;
64235;SDS011;50564;47.402;9.740;2022-09-27T22:59:30;0.60;;;0.45;;
64235;SDS011;50564;47.402;9.740;2022-09-27T23:04:31;2.67;;;0.80;;
64235;SDS011;50564;47.402;9.740;2022-09-27T23:09:31;4.88;;;2.35;;
64235;SDS011;50564;47.402;9.740;2022-09-27T23:14:32;3.95;;;2.05;;
64235;SDS011;50564;47.402;9.740;2022-09-27T23:19:33;2.92;;;2.10;;
64235;SDS011;50564;47.402;9.740;2022-09-27T23:24:33;2.17;;;1.90;;
64235;SDS011;50564;47.402;9.740;2022-09-27T23:29:34;2.75;;;1.98;;
64235;SDS011;50564;47.402;9.740;2022-09-27T23:34:34;5.85;;;2.55;;
64235;SDS011;50564;47.402;9.740;2022-09-27T23:39:35;2.85;;;1.92;;
64235;SDS011;50564;47.402;9.740;2022-09-27T23:44:36;3.13;;;2.60;;
64235;SDS011;50564;47.402;9.740;2022-09-27T23:49:36;3.10;;;2.08;;
64235;SDS011;50564;47.402;9.740;2022-09-27T23:54:37;2.83;;;2.20;;
64235;SDS011;50564;47.402;9.740;2022-09-27T23:59:38;1.77;;;1.50;;
